sensor_id;sensor_type;location;lat;lon;timestamp;P1;durP1;ratioP1;P2;durP2;ratioP2
29358;SDS011;16347;53.232;6.556;2023-10-08T00:00:45;0.50;;;0.45;;
29358;SDS011;16347;53.232;6.556;2023-10-08T00:03:16;1.15;;;0.45;;
29358;SDS011;16347;53.232;6.556;2023-10-08T00:05:45;2.00;;;0.43;;
29358;SDS011;16347;53.232;6.556;2023-10-08T00:08:15;2.22;;;0.38;;
29358;SDS011;16347;53.232;6.556;2023-10-08T00:10:43;1.48;;;0.20;;
29358;SDS011;16347;53.232;6.556;2023-10-08T00:13:12;1.48;;;0.30;;
29358;SDS011;16347;53.232;6.556;2023-10-08T00:15:42;1.05;;;0.40;;
29358;SDS011;16347;53.232;6.556;2023-10-08T00:18:19;2.08;;;0.45;;
29358;SDS011;16347;53.232;6.556;2023-10-08T00:20:49;2.58;;;0.52;;
29358;SDS011;16347;53.232;6.556;2023-10-08T00:23:26;4.07;;;0.50;;
29358;SDS011;16347;53.232;6.556;2023-10-08T00:25:55;2.67;;;0.50;;
29358;SDS011;16347;53.232;6.556;2023-10-08T00:28:24;3.22;;;0.50;;
29358;SDS011;16347;53.232;6.556;2023-10-08T00:30:54;6.10;;;0.52;;
29358;SDS011;16347;53.232;6.556;2023-10-08T00:33:23;5.18;;;0.88;;
29358;SDS011;16347;53.232;6.556;2023-10-08T00:35:51;1.85;;;0.25;;
29358;SDS011;16347;53.232;6.556;2023-10-08T00:38:19;5.45;;;0.57;;
29358;SDS011;16347;53.232;6.556;2023-10-08T00:40:49;0.88;;;0.35;;
29358;SDS011;16347;53.232;6.556;2023-10-08T00:46:00;5.68;;;0.60;;
29358;SDS011;16347;53.232;6.556;2023-10-08T00:48:29;4.07;;;0.77;;
29358;SDS011;16347;53.232;6.556;2023-10-08T00:51:02;3.75;;;0.70;;
29358;SDS011;16347;53.232;6.556;2023-10-08T00:53:43;1.45;;;0.43;;
29358;SDS011;16347;53.232;6.556;2023-10-08T00:56:13;3.22;;;0.80;;
29358;SDS011;16347;53.232;6.556;2023-10-08T01:01:16;1.92;;;0.80;;
29358;SDS011;16347;53.232;6.556;2023-10-08T01:03:47;2.72;;;0.70;;
29358;SDS011;16347;53.232;6.556;2023-10-08T01:06:16;6.88;;;1.30;;
29358;SDS011;16347;53.232;6.556;2023-10-08T01:08:46;2.95;;;0.75;;
29358;SDS011;16347;53.232;6.556;2023-10-08T01:11:21;1.23;;;0.30;;
29358;SDS011;16347;53.232;6.556;2023-10-08T01:13:59;2.38;;;0.88;;
29358;SDS011;16347;53.232;6.556;2023-10-08T01:16:27;1.65;;;0.52;;
29358;SDS011;16347;53.232;6.556;2023-10-08T01:18:59;1.00;;;0.47;;
29358;SDS011;16347;53.232;6.556;2023-10-08T01:21:29;4.55;;;0.95;;
29358;SDS011;16347;53.232;6.556;2023-10-08T01:24:03;1.40;;;0.55;;
29358;SDS011;16347;53.232;6.556;2023-10-08T01:26:32;4.47;;;0.85;;
29358;SDS011;16347;53.232;6.556;2023-10-08T01:29:08;2.17;;;0.70;;
29358;SDS011;16347;53.232;6.556;2023-10-08T01:31:46;4.25;;;0.95;;
29358;SDS011;16347;53.232;6.556;2023-10-08T01:34:15;5.90;;;0.95;;
29358;SDS011;16347;53.232;6.556;2023-10-08T01:36:44;12.20;;;0.90;;
29358;SDS011;16347;53.232;6.556;2023-10-08T01:39:15;5.03;;;1.05;;
29358;SDS011;16347;53.232;6.556;2023-10-08T01:41:43;16.77;;;1.25;;
29358;SDS011;16347;53.232;6.556;2023-10-08T01:44:13;1.88;;;0.63;;
29358;SDS011;16347;53.232;6.556;2023-10-08T01:46:41;3.30;;;0.85;;
29358;SDS011;16347;53.232;6.556;2023-10-08T01:49:10;9.48;;;1.13;;
29358;SDS011;16347;53.232;6.556;2023-10-08T01:51:41;6.85;;;0.90;;
29358;SDS011;16347;53.232;6.556;2023-10-08T01:54:15;4.22;;;0.95;;
29358;SDS011;16347;53.232;6.556;2023-10-08T01:56:44;4.60;;;0.90;;
29358;SDS011;16347;53.232;6.556;2023-10-08T01:59:13;2.65;;;0.63;;
29358;SDS011;16347;53.232;6.556;2023-10-08T02:01:43;4.57;;;1.10;;
29358;SDS011;16347;53.232;6.556;2023-10-08T02:04:12;3.50;;;0.80;;
29358;SDS011;16347;53.232;6.556;2023-10-08T02:06:43;10.43;;;0.88;;
29358;SDS011;16347;53.232;6.556;2023-10-08T02:09:12;4.22;;;1.20;;
29358;SDS011;16347;53.232;6.556;2023-10-08T02:11:43;5.60;;;0.90;;
29358;SDS011;16347;53.232;6.556;2023-10-08T02:14:12;5.38;;;0.90;;
29358;SDS011;16347;53.232;6.556;2023-10-08T02:16:42;4.18;;;1.27;;
29358;SDS011;16347;53.232;6.556;2023-10-08T02:19:10;6.22;;;0.68;;
29358;SDS011;16347;53.232;6.556;2023-10-08T02:21:38;4.97;;;1.02;;
29358;SDS011;16347;53.232;6.556;2023-10-08T02:24:12;6.10;;;1.20;;
29358;SDS011;16347;53.232;6.556;2023-10-08T02:26:40;5.22;;;1.27;;
29358;SDS011;16347;53.232;6.556;2023-10-08T02:29:11;6.78;;;1.90;;
29358;SDS011;16347;53.232;6.556;2023-10-08T02:31:40;10.43;;;1.30;;
29358;SDS011;16347;53.232;6.556;2023-10-08T02:34:09;2.75;;;0.98;;
29358;SDS011;16347;53.232;6.556;2023-10-08T02:36:39;10.38;;;1.45;;
29358;SDS011;16347;53.232;6.556;2023-10-08T02:39:10;2.78;;;0.70;;
29358;SDS011;16347;53.232;6.556;2023-10-08T02:41:49;7.68;;;1.23;;
29358;SDS011;16347;53.232;6.556;2023-10-08T02:44:18;9.65;;;1.00;;
29358;SDS011;16347;53.232;6.556;2023-10-08T02:46:47;5.75;;;0.80;;
29358;SDS011;16347;53.232;6.556;2023-10-08T02:49:18;5.80;;;0.90;;
29358;SDS011;16347;53.232;6.556;2023-10-08T02:51:48;4.57;;;1.17;;
29358;SDS011;16347;53.232;6.556;2023-10-08T02:54:17;7.40;;;1.23;;
29358;SDS011;16347;53.232;6.556;2023-10-08T02:56:46;3.85;;;0.68;;
29358;SDS011;16347;53.232;6.556;2023-10-08T02:59:19;6.20;;;1.02;;
29358;SDS011;16347;53.232;6.556;2023-10-08T03:01:48;8.30;;;1.40;;
29358;SDS011;16347;53.232;6.556;2023-10-08T03:04:18;4.32;;;1.13;;
29358;SDS011;16347;53.232;6.556;2023-10-08T03:06:47;4.90;;;1.02;;
29358;SDS011;16347;53.232;6.556;2023-10-08T03:09:17;10.52;;;1.17;;
29358;SDS011;16347;53.232;6.556;2023-10-08T03:11:50;3.75;;;0.90;;
29358;SDS011;16347;53.232;6.556;2023-10-08T03:14:20;4.60;;;1.00;;
29358;SDS011;16347;53.232;6.556;2023-10-08T03:16:54;3.30;;;0.98;;
29358;SDS011;16347;53.232;6.556;2023-10-08T03:19:33;6.68;;;1.08;;
29358;SDS011;16347;53.232;6.556;2023-10-08T03:22:01;5.65;;;1.35;;
29358;SDS011;16347;53.232;6.556;2023-10-08T03:24:31;4.63;;;1.02;;
29358;SDS011;16347;53.232;6.556;2023-10-08T03:27:05;9.45;;;1.02;;
29358;SDS011;16347;53.232;6.556;2023-10-08T03:29:36;5.38;;;0.90;;
29358;SDS011;16347;53.232;6.556;2023-10-08T03:32:11;5.90;;;1.05;;
29358;SDS011;16347;53.232;6.556;2023-10-08T03:34:44;7.13;;;1.05;;
29358;SDS011;16347;53.232;6.556;2023-10-08T03:37:13;4.85;;;1.50;;
29358;SDS011;16347;53.232;6.556;2023-10-08T03:39:47;6.75;;;1.30;;
29358;SDS011;16347;53.232;6.556;2023-10-08T03:42:19;8.27;;;1.77;;
29358;SDS011;16347;53.232;6.556;2023-10-08T03:44:50;6.03;;;1.45;;
29358;SDS011;16347;53.232;6.556;2023-10-08T03:47:19;6.63;;;1.40;;
29358;SDS011;16347;53.232;6.556;2023-10-08T03:49:49;7.28;;;1.30;;
29358;SDS011;16347;53.232;6.556;2023-10-08T03:52:17;8.18;;;1.60;;
29358;SDS011;16347;53.232;6.556;2023-10-08T03:54:49;12.13;;;1.27;;
29358;SDS011;16347;53.232;6.556;2023-10-08T03:57:31;5.35;;;1.33;;
29358;SDS011;16347;53.232;6.556;2023-10-08T04:00:10;7.60;;;1.17;;
29358;SDS011;16347;53.232;6.556;2023-10-08T04:02:41;8.57;;;1.30;;
29358;SDS011;16347;53.232;6.556;2023-10-08T04:05:13;3.67;;;0.90;;
29358;SDS011;16347;53.232;6.556;2023-10-08T04:07:51;5.90;;;1.20;;
29358;SDS011;16347;53.232;6.556;2023-10-08T04:10:41;4.60;;;1.10;;
29358;SDS011;16347;53.232;6.556;2023-10-08T04:13:34;5.57;;;1.10;;
29358;SDS011;16347;53.232;6.556;2023-10-08T04:16:06;3.67;;;1.58;;
29358;SDS011;16347;53.232;6.556;2023-10-08T04:18:34;6.38;;;1.30;;
29358;SDS011;16347;53.232;6.556;2023-10-08T04:21:06;7.85;;;1.33;;
29358;SDS011;16347;53.232;6.556;2023-10-08T04:23:39;4.67;;;1.37;;
29358;SDS011;16347;53.232;6.556;2023-10-08T04:26:11;5.30;;;1.40;;
29358;SDS011;16347;53.232;6.556;2023-10-08T04:28:39;9.68;;;1.70;;
29358;SDS011;16347;53.232;6.556;2023-10-08T04:31:09;6.70;;;1.70;;
29358;SDS011;16347;53.232;6.556;2023-10-08T04:33:43;10.57;;;1.50;;
29358;SDS011;16347;53.232;6.556;2023-10-08T04:36:11;8.63;;;1.27;;
29358;SDS011;16347;53.232;6.556;2023-10-08T04:38:44;6.43;;;1.43;;
29358;SDS011;16347;53.232;6.556;2023-10-08T04:41:14;6.65;;;1.85;;
29358;SDS011;16347;53.232;6.556;2023-10-08T04:43:46;6.28;;;1.92;;
29358;SDS011;16347;53.232;6.556;2023-10-08T04:46:17;6.13;;;1.63;;
29358;SDS011;16347;53.232;6.556;2023-10-08T04:49:00;10.55;;;1.55;;
29358;SDS011;16347;53.232;6.556;2023-10-08T04:51:33;7.75;;;1.58;;
29358;SDS011;16347;53.232;6.556;2023-10-08T04:54:10;9.95;;;1.65;;
29358;SDS011;16347;53.232;6.556;2023-10-08T04:56:43;11.68;;;1.45;;
29358;SDS011;16347;53.232;6.556;2023-10-08T04:59:11;5.13;;;1.70;;
29358;SDS011;16347;53.232;6.556;2023-10-08T05:01:40;5.20;;;1.80;;
29358;SDS011;16347;53.232;6.556;2023-10-08T05:04:14;7.75;;;1.63;;
29358;SDS011;16347;53.232;6.556;2023-10-08T05:06:57;8.30;;;1.50;;
29358;SDS011;16347;53.232;6.556;2023-10-08T05:09:43;7.25;;;1.25;;
29358;SDS011;16347;53.232;6.556;2023-10-08T05:12:37;12.48;;;1.67;;
29358;SDS011;16347;53.232;6.556;2023-10-08T05:15:09;15.25;;;2.00;;
29358;SDS011;16347;53.232;6.556;2023-10-08T05:18:01;8.85;;;1.75;;
29358;SDS011;16347;53.232;6.556;2023-10-08T05:20:50;6.72;;;1.55;;
29358;SDS011;16347;53.232;6.556;2023-10-08T05:23:29;6.53;;;1.60;;
29358;SDS011;16347;53.232;6.556;2023-10-08T05:26:20;9.63;;;1.20;;
29358;SDS011;16347;53.232;6.556;2023-10-08T05:28:57;10.35;;;1.70;;
29358;SDS011;16347;53.232;6.556;2023-10-08T05:31:51;7.80;;;1.40;;
29358;SDS011;16347;53.232;6.556;2023-10-08T05:34:41;10.85;;;2.08;;
29358;SDS011;16347;53.232;6.556;2023-10-08T05:37:38;8.48;;;1.33;;
29358;SDS011;16347;53.232;6.556;2023-10-08T05:40:08;13.80;;;2.47;;
29358;SDS011;16347;53.232;6.556;2023-10-08T05:42:48;10.27;;;2.05;;
29358;SDS011;16347;53.232;6.556;2023-10-08T05:45:27;7.63;;;1.50;;
29358;SDS011;16347;53.232;6.556;2023-10-08T05:48:01;13.52;;;1.52;;
29358;SDS011;16347;53.232;6.556;2023-10-08T05:50:41;9.88;;;1.42;;
29358;SDS011;16347;53.232;6.556;2023-10-08T05:53:39;8.00;;;1.58;;
29358;SDS011;16347;53.232;6.556;2023-10-08T05:56:10;10.32;;;1.60;;
29358;SDS011;16347;53.232;6.556;2023-10-08T05:58:55;8.20;;;1.70;;
29358;SDS011;16347;53.232;6.556;2023-10-08T06:01:41;10.23;;;2.00;;
29358;SDS011;16347;53.232;6.556;2023-10-08T06:04:12;6.05;;;1.40;;
29358;SDS011;16347;53.232;6.556;2023-10-08T06:07:10;6.18;;;1.55;;
29358;SDS011;16347;53.232;6.556;2023-10-08T06:09:47;9.05;;;2.00;;
29358;SDS011;16347;53.232;6.556;2023-10-08T06:12:28;15.05;;;1.67;;
29358;SDS011;16347;53.232;6.556;2023-10-08T06:14:59;8.82;;;1.42;;
29358;SDS011;16347;53.232;6.556;2023-10-08T06:17:38;8.07;;;1.80;;
29358;SDS011;16347;53.232;6.556;2023-10-08T06:20:26;9.43;;;2.17;;
29358;SDS011;16347;53.232;6.556;2023-10-08T06:22:57;8.85;;;2.17;;
29358;SDS011;16347;53.232;6.556;2023-10-08T06:25:28;10.38;;;1.80;;
29358;SDS011;16347;53.232;6.556;2023-10-08T06:27:56;10.05;;;1.83;;
29358;SDS011;16347;53.232;6.556;2023-10-08T06:30:25;10.07;;;1.42;;
29358;SDS011;16347;53.232;6.556;2023-10-08T06:32:56;9.18;;;2.45;;
29358;SDS011;16347;53.232;6.556;2023-10-08T06:35:24;11.45;;;1.63;;
29358;SDS011;16347;53.232;6.556;2023-10-08T06:37:56;10.32;;;1.80;;
29358;SDS011;16347;53.232;6.556;2023-10-08T06:40:26;8.70;;;1.92;;
29358;SDS011;16347;53.232;6.556;2023-10-08T06:43:09;4.63;;;1.40;;
29358;SDS011;16347;53.232;6.556;2023-10-08T06:45:51;10.65;;;1.60;;
29358;SDS011;16347;53.232;6.556;2023-10-08T06:48:20;9.88;;;1.70;;
29358;SDS011;16347;53.232;6.556;2023-10-08T06:50:51;12.48;;;1.50;;
29358;SDS011;16347;53.232;6.556;2023-10-08T06:55:56;7.47;;;1.85;;
29358;SDS011;16347;53.232;6.556;2023-10-08T06:58:24;8.07;;;1.42;;
29358;SDS011;16347;53.232;6.556;2023-10-08T07:00:52;8.63;;;2.03;;
29358;SDS011;16347;53.232;6.556;2023-10-08T07:03:22;9.30;;;1.63;;
29358;SDS011;16347;53.232;6.556;2023-10-08T07:05:51;7.63;;;1.70;;
29358;SDS011;16347;53.232;6.556;2023-10-08T07:08:27;6.65;;;1.50;;
29358;SDS011;16347;53.232;6.556;2023-10-08T07:10:58;9.57;;;2.00;;
29358;SDS011;16347;53.232;6.556;2023-10-08T07:13:31;8.55;;;1.63;;
29358;SDS011;16347;53.232;6.556;2023-10-08T07:15:59;14.27;;;2.55;;
29358;SDS011;16347;53.232;6.556;2023-10-08T07:18:30;7.82;;;1.67;;
29358;SDS011;16347;53.232;6.556;2023-10-08T07:21:01;18.50;;;1.85;;
29358;SDS011;16347;53.232;6.556;2023-10-08T07:23:39;10.52;;;1.38;;
29358;SDS011;16347;53.232;6.556;2023-10-08T07:26:23;10.57;;;1.83;;
29358;SDS011;16347;53.232;6.556;2023-10-08T07:28:52;8.25;;;1.92;;
29358;SDS011;16347;53.232;6.556;2023-10-08T07:31:21;11.57;;;2.05;;
29358;SDS011;16347;53.232;6.556;2023-10-08T07:33:50;11.43;;;2.13;;
29358;SDS011;16347;53.232;6.556;2023-10-08T07:36:22;5.90;;;1.42;;
29358;SDS011;16347;53.232;6.556;2023-10-08T07:38:52;18.67;;;1.98;;
29358;SDS011;16347;53.232;6.556;2023-10-08T07:41:21;6.80;;;1.75;;
29358;SDS011;16347;53.232;6.556;2023-10-08T07:43:49;10.13;;;1.60;;
29358;SDS011;16347;53.232;6.556;2023-10-08T07:46:22;14.77;;;2.10;;
29358;SDS011;16347;53.232;6.556;2023-10-08T07:48:53;9.23;;;1.48;;
29358;SDS011;16347;53.232;6.556;2023-10-08T07:51:21;11.38;;;2.03;;
29358;SDS011;16347;53.232;6.556;2023-10-08T07:53:50;6.70;;;2.00;;
29358;SDS011;16347;53.232;6.556;2023-10-08T07:56:22;10.82;;;2.00;;
29358;SDS011;16347;53.232;6.556;2023-10-08T07:58:51;6.65;;;1.40;;
29358;SDS011;16347;53.232;6.556;2023-10-08T08:01:22;7.82;;;1.60;;
29358;SDS011;16347;53.232;6.556;2023-10-08T08:03:52;6.55;;;1.20;;
29358;SDS011;16347;53.232;6.556;2023-10-08T08:06:20;12.35;;;2.05;;
29358;SDS011;16347;53.232;6.556;2023-10-08T08:08:49;11.60;;;1.98;;
29358;SDS011;16347;53.232;6.556;2023-10-08T08:11:17;7.10;;;1.65;;
29358;SDS011;16347;53.232;6.556;2023-10-08T08:13:52;9.82;;;1.50;;
29358;SDS011;16347;53.232;6.556;2023-10-08T08:16:20;8.98;;;1.92;;
29358;SDS011;16347;53.232;6.556;2023-10-08T08:18:51;16.15;;;1.33;;
29358;SDS011;16347;53.232;6.556;2023-10-08T08:21:23;6.43;;;1.83;;
29358;SDS011;16347;53.232;6.556;2023-10-08T08:23:52;9.98;;;1.70;;
29358;SDS011;16347;53.232;6.556;2023-10-08T08:26:31;12.93;;;1.95;;
29358;SDS011;16347;53.232;6.556;2023-10-08T08:29:07;7.93;;;1.60;;
29358;SDS011;16347;53.232;6.556;2023-10-08T08:31:42;8.55;;;1.95;;
29358;SDS011;16347;53.232;6.556;2023-10-08T08:34:12;8.85;;;1.35;;
29358;SDS011;16347;53.232;6.556;2023-10-08T08:36:46;10.38;;;1.58;;
29358;SDS011;16347;53.232;6.556;2023-10-08T08:39:15;10.13;;;2.00;;
29358;SDS011;16347;53.232;6.556;2023-10-08T08:41:56;16.10;;;2.03;;
29358;SDS011;16347;53.232;6.556;2023-10-08T08:44:28;9.57;;;1.67;;
29358;SDS011;16347;53.232;6.556;2023-10-08T08:46:58;7.78;;;1.65;;
29358;SDS011;16347;53.232;6.556;2023-10-08T08:49:31;12.55;;;2.05;;
29358;SDS011;16347;53.232;6.556;2023-10-08T08:52:00;14.40;;;3.20;;
29358;SDS011;16347;53.232;6.556;2023-10-08T08:54:28;11.95;;;1.70;;
29358;SDS011;16347;53.232;6.556;2023-10-08T08:56:59;7.38;;;1.60;;
29358;SDS011;16347;53.232;6.556;2023-10-08T08:59:32;10.75;;;2.05;;
29358;SDS011;16347;53.232;6.556;2023-10-08T09:02:03;8.18;;;1.60;;
29358;SDS011;16347;53.232;6.556;2023-10-08T09:04:34;12.70;;;1.73;;
29358;SDS011;16347;53.232;6.556;2023-10-08T09:07:04;9.38;;;1.75;;
29358;SDS011;16347;53.232;6.556;2023-10-08T09:09:32;12.32;;;1.95;;
29358;SDS011;16347;53.232;6.556;2023-10-08T09:12:00;11.85;;;2.17;;
29358;SDS011;16347;53.232;6.556;2023-10-08T09:14:32;10.20;;;1.73;;
29358;SDS011;16347;53.232;6.556;2023-10-08T09:17:01;7.85;;;1.35;;
29358;SDS011;16347;53.232;6.556;2023-10-08T09:19:35;7.93;;;1.95;;
29358;SDS011;16347;53.232;6.556;2023-10-08T09:22:04;11.40;;;3.20;;
29358;SDS011;16347;53.232;6.556;2023-10-08T09:24:33;10.82;;;2.75;;
29358;SDS011;16347;53.232;6.556;2023-10-08T09:27:03;11.35;;;2.38;;
29358;SDS011;16347;53.232;6.556;2023-10-08T09:29:33;7.90;;;1.88;;
29358;SDS011;16347;53.232;6.556;2023-10-08T09:32:08;9.70;;;1.85;;
29358;SDS011;16347;53.232;6.556;2023-10-08T09:34:36;9.32;;;1.83;;
29358;SDS011;16347;53.232;6.556;2023-10-08T09:37:04;7.38;;;2.20;;
29358;SDS011;16347;53.232;6.556;2023-10-08T09:39:34;10.35;;;2.45;;
29358;SDS011;16347;53.232;6.556;2023-10-08T09:42:03;8.90;;;2.45;;
29358;SDS011;16347;53.232;6.556;2023-10-08T09:44:35;11.98;;;2.72;;
29358;SDS011;16347;53.232;6.556;2023-10-08T09:47:03;10.93;;;2.05;;
29358;SDS011;16347;53.232;6.556;2023-10-08T09:49:33;10.70;;;2.33;;
29358;SDS011;16347;53.232;6.556;2023-10-08T09:52:08;9.27;;;2.20;;
29358;SDS011;16347;53.232;6.556;2023-10-08T09:54:39;8.82;;;1.70;;
29358;SDS011;16347;53.232;6.556;2023-10-08T09:57:11;23.13;;;8.82;;
29358;SDS011;16347;53.232;6.556;2023-10-08T09:59:40;13.05;;;5.40;;
29358;SDS011;16347;53.232;6.556;2023-10-08T10:02:09;15.82;;;3.63;;
29358;SDS011;16347;53.232;6.556;2023-10-08T10:04:41;10.15;;;3.28;;
29358;SDS011;16347;53.232;6.556;2023-10-08T10:07:11;10.25;;;3.38;;
29358;SDS011;16347;53.232;6.556;2023-10-08T10:09:42;10.63;;;2.63;;
29358;SDS011;16347;53.232;6.556;2023-10-08T10:12:17;9.93;;;2.30;;
29358;SDS011;16347;53.232;6.556;2023-10-08T10:14:54;11.35;;;1.90;;
29358;SDS011;16347;53.232;6.556;2023-10-08T10:17:24;10.00;;;3.00;;
29358;SDS011;16347;53.232;6.556;2023-10-08T10:20:09;13.73;;;3.55;;
29358;SDS011;16347;53.232;6.556;2023-10-08T10:22:42;6.75;;;2.05;;
29358;SDS011;16347;53.232;6.556;2023-10-08T10:25:11;12.23;;;2.30;;
29358;SDS011;16347;53.232;6.556;2023-10-08T10:30:32;9.77;;;2.13;;
29358;SDS011;16347;53.232;6.556;2023-10-08T10:33:00;10.68;;;2.75;;
29358;SDS011;16347;53.232;6.556;2023-10-08T10:35:30;11.93;;;2.53;;
29358;SDS011;16347;53.232;6.556;2023-10-08T10:37:59;13.15;;;2.67;;
29358;SDS011;16347;53.232;6.556;2023-10-08T10:40:30;10.60;;;1.90;;
29358;SDS011;16347;53.232;6.556;2023-10-08T10:43:06;12.90;;;2.45;;
29358;SDS011;16347;53.232;6.556;2023-10-08T10:45:37;13.75;;;2.95;;
29358;SDS011;16347;53.232;6.556;2023-10-08T10:48:07;19.35;;;1.55;;
29358;SDS011;16347;53.232;6.556;2023-10-08T10:50:48;11.40;;;2.25;;
29358;SDS011;16347;53.232;6.556;2023-10-08T10:53:35;10.27;;;1.88;;
29358;SDS011;16347;53.232;6.556;2023-10-08T10:56:12;7.40;;;1.88;;
29358;SDS011;16347;53.232;6.556;2023-10-08T10:58:45;7.00;;;1.73;;
29358;SDS011;16347;53.232;6.556;2023-10-08T11:01:23;10.55;;;1.73;;
29358;SDS011;16347;53.232;6.556;2023-10-08T11:03:56;9.55;;;2.05;;
29358;SDS011;16347;53.232;6.556;2023-10-08T11:06:25;11.65;;;2.00;;
29358;SDS011;16347;53.232;6.556;2023-10-08T11:08:53;7.28;;;2.17;;
29358;SDS011;16347;53.232;6.556;2023-10-08T11:11:25;12.20;;;2.00;;
29358;SDS011;16347;53.232;6.556;2023-10-08T11:13:55;13.68;;;1.98;;
29358;SDS011;16347;53.232;6.556;2023-10-08T11:16:28;8.55;;;1.98;;
29358;SDS011;16347;53.232;6.556;2023-10-08T11:18:58;12.80;;;3.60;;
29358;SDS011;16347;53.232;6.556;2023-10-08T11:21:42;16.10;;;2.65;;
29358;SDS011;16347;53.232;6.556;2023-10-08T11:24:26;13.48;;;2.55;;
29358;SDS011;16347;53.232;6.556;2023-10-08T11:26:55;10.02;;;2.05;;
29358;SDS011;16347;53.232;6.556;2023-10-08T11:29:42;11.63;;;2.15;;
29358;SDS011;16347;53.232;6.556;2023-10-08T11:32:12;10.98;;;1.88;;
29358;SDS011;16347;53.232;6.556;2023-10-08T11:34:45;13.07;;;3.33;;
29358;SDS011;16347;53.232;6.556;2023-10-08T11:37:25;10.33;;;2.10;;
29358;SDS011;16347;53.232;6.556;2023-10-08T11:39:54;7.18;;;1.92;;
29358;SDS011;16347;53.232;6.556;2023-10-08T11:42:24;8.63;;;1.83;;
29358;SDS011;16347;53.232;6.556;2023-10-08T11:45:10;12.30;;;1.85;;
29358;SDS011;16347;53.232;6.556;2023-10-08T11:47:53;9.63;;;1.80;;
29358;SDS011;16347;53.232;6.556;2023-10-08T11:50:29;10.63;;;2.40;;
29358;SDS011;16347;53.232;6.556;2023-10-08T11:52:58;10.32;;;2.20;;
29358;SDS011;16347;53.232;6.556;2023-10-08T11:55:32;6.70;;;1.98;;
29358;SDS011;16347;53.232;6.556;2023-10-08T11:58:05;8.10;;;1.65;;
29358;SDS011;16347;53.232;6.556;2023-10-08T12:00:37;9.68;;;1.90;;
29358;SDS011;16347;53.232;6.556;2023-10-08T12:03:13;9.63;;;1.98;;
29358;SDS011;16347;53.232;6.556;2023-10-08T12:05:45;13.00;;;2.10;;
29358;SDS011;16347;53.232;6.556;2023-10-08T12:08:26;10.35;;;1.50;;
29358;SDS011;16347;53.232;6.556;2023-10-08T12:10:55;15.70;;;2.10;;
29358;SDS011;16347;53.232;6.556;2023-10-08T12:13:26;10.85;;;2.03;;
29358;SDS011;16347;53.232;6.556;2023-10-08T12:15:55;14.18;;;1.65;;
29358;SDS011;16347;53.232;6.556;2023-10-08T12:18:33;6.57;;;2.40;;
29358;SDS011;16347;53.232;6.556;2023-10-08T12:21:07;5.72;;;1.67;;
29358;SDS011;16347;53.232;6.556;2023-10-08T12:23:37;6.72;;;1.90;;
29358;SDS011;16347;53.232;6.556;2023-10-08T12:26:05;8.85;;;1.85;;
29358;SDS011;16347;53.232;6.556;2023-10-08T12:28:34;5.78;;;1.60;;
29358;SDS011;16347;53.232;6.556;2023-10-08T12:31:03;8.77;;;1.70;;
29358;SDS011;16347;53.232;6.556;2023-10-08T12:33:31;6.78;;;1.77;;
29358;SDS011;16347;53.232;6.556;2023-10-08T12:36:02;10.38;;;2.17;;
29358;SDS011;16347;53.232;6.556;2023-10-08T12:38:38;8.63;;;2.08;;
29358;SDS011;16347;53.232;6.556;2023-10-08T12:41:09;10.38;;;2.00;;
29358;SDS011;16347;53.232;6.556;2023-10-08T12:43:41;8.95;;;1.90;;
29358;SDS011;16347;53.232;6.556;2023-10-08T12:46:12;8.70;;;1.45;;
29358;SDS011;16347;53.232;6.556;2023-10-08T12:48:45;4.45;;;1.30;;
29358;SDS011;16347;53.232;6.556;2023-10-08T12:51:21;8.52;;;1.77;;
29358;SDS011;16347;53.232;6.556;2023-10-08T12:53:51;9.65;;;1.65;;
29358;SDS011;16347;53.232;6.556;2023-10-08T12:56:26;12.98;;;1.48;;
29358;SDS011;16347;53.232;6.556;2023-10-08T12:59:02;12.45;;;1.50;;
29358;SDS011;16347;53.232;6.556;2023-10-08T13:01:33;11.70;;;1.73;;
29358;SDS011;16347;53.232;6.556;2023-10-08T13:04:02;7.78;;;1.67;;
29358;SDS011;16347;53.232;6.556;2023-10-08T13:06:40;8.80;;;1.70;;
29358;SDS011;16347;53.232;6.556;2023-10-08T13:09:12;7.40;;;1.35;;
29358;SDS011;16347;53.232;6.556;2023-10-08T13:11:40;13.98;;;1.70;;
29358;SDS011;16347;53.232;6.556;2023-10-08T13:14:09;10.88;;;1.63;;
29358;SDS011;16347;53.232;6.556;2023-10-08T13:16:39;9.18;;;1.65;;
29358;SDS011;16347;53.232;6.556;2023-10-08T13:19:07;9.75;;;1.75;;
29358;SDS011;16347;53.232;6.556;2023-10-08T13:21:35;8.88;;;1.90;;
29358;SDS011;16347;53.232;6.556;2023-10-08T13:24:06;11.77;;;2.28;;
29358;SDS011;16347;53.232;6.556;2023-10-08T13:26:36;12.13;;;2.60;;
29358;SDS011;16347;53.232;6.556;2023-10-08T13:29:05;11.35;;;1.92;;
29358;SDS011;16347;53.232;6.556;2023-10-08T13:31:36;8.00;;;2.00;;
29358;SDS011;16347;53.232;6.556;2023-10-08T13:34:04;9.90;;;2.22;;
29358;SDS011;16347;53.232;6.556;2023-10-08T13:36:35;10.30;;;2.33;;
29358;SDS011;16347;53.232;6.556;2023-10-08T13:39:07;9.85;;;1.80;;
29358;SDS011;16347;53.232;6.556;2023-10-08T13:41:36;5.72;;;1.60;;
29358;SDS011;16347;53.232;6.556;2023-10-08T13:44:08;7.85;;;1.98;;
29358;SDS011;16347;53.232;6.556;2023-10-08T13:46:39;9.88;;;1.77;;
29358;SDS011;16347;53.232;6.556;2023-10-08T13:49:14;12.80;;;2.03;;
29358;SDS011;16347;53.232;6.556;2023-10-08T13:51:43;9.75;;;1.77;;
29358;SDS011;16347;53.232;6.556;2023-10-08T13:54:14;6.55;;;1.50;;
29358;SDS011;16347;53.232;6.556;2023-10-08T13:56:42;8.82;;;1.67;;
29358;SDS011;16347;53.232;6.556;2023-10-08T13:59:15;16.90;;;1.87;;
29358;SDS011;16347;53.232;6.556;2023-10-08T14:01:44;13.38;;;1.85;;
29358;SDS011;16347;53.232;6.556;2023-10-08T14:04:14;9.32;;;1.83;;
29358;SDS011;16347;53.232;6.556;2023-10-08T14:06:46;13.40;;;1.85;;
29358;SDS011;16347;53.232;6.556;2023-10-08T14:09:20;12.73;;;2.00;;
29358;SDS011;16347;53.232;6.556;2023-10-08T14:11:58;6.32;;;1.80;;
29358;SDS011;16347;53.232;6.556;2023-10-08T14:14:27;6.28;;;1.75;;
29358;SDS011;16347;53.232;6.556;2023-10-08T14:16:57;5.82;;;1.42;;
29358;SDS011;16347;53.232;6.556;2023-10-08T14:19:30;7.57;;;2.00;;
29358;SDS011;16347;53.232;6.556;2023-10-08T14:22:05;10.15;;;2.03;;
29358;SDS011;16347;53.232;6.556;2023-10-08T14:24:37;8.05;;;1.73;;
29358;SDS011;16347;53.232;6.556;2023-10-08T14:27:05;6.55;;;2.28;;
29358;SDS011;16347;53.232;6.556;2023-10-08T14:29:37;8.43;;;2.10;;
29358;SDS011;16347;53.232;6.556;2023-10-08T14:32:07;9.95;;;2.13;;
29358;SDS011;16347;53.232;6.556;2023-10-08T14:34:36;9.15;;;1.75;;
29358;SDS011;16347;53.232;6.556;2023-10-08T14:37:22;10.88;;;2.17;;
29358;SDS011;16347;53.232;6.556;2023-10-08T14:40:09;7.38;;;2.25;;
29358;SDS011;16347;53.232;6.556;2023-10-08T14:42:55;8.57;;;1.80;;
29358;SDS011;16347;53.232;6.556;2023-10-08T14:45:29;10.77;;;2.58;;
29358;SDS011;16347;53.232;6.556;2023-10-08T14:48:00;6.78;;;1.75;;
29358;SDS011;16347;53.232;6.556;2023-10-08T14:50:28;11.13;;;2.03;;
29358;SDS011;16347;53.232;6.556;2023-10-08T14:52:59;12.68;;;2.30;;
29358;SDS011;16347;53.232;6.556;2023-10-08T14:55:34;8.48;;;1.65;;
29358;SDS011;16347;53.232;6.556;2023-10-08T14:58:04;5.77;;;1.97;;
29358;SDS011;16347;53.232;6.556;2023-10-08T15:00:35;19.83;;;2.50;;
29358;SDS011;16347;53.232;6.556;2023-10-08T15:03:04;10.75;;;1.98;;
29358;SDS011;16347;53.232;6.556;2023-10-08T15:05:32;9.68;;;2.58;;
29358;SDS011;16347;53.232;6.556;2023-10-08T15:08:04;7.55;;;2.25;;
29358;SDS011;16347;53.232;6.556;2023-10-08T15:10:39;8.88;;;2.00;;
29358;SDS011;16347;53.232;6.556;2023-10-08T15:13:07;6.35;;;1.85;;
29358;SDS011;16347;53.232;6.556;2023-10-08T15:15:35;11.13;;;2.20;;
29358;SDS011;16347;53.232;6.556;2023-10-08T15:18:06;9.55;;;2.75;;
29358;SDS011;16347;53.232;6.556;2023-10-08T15:20:38;8.90;;;2.08;;
29358;SDS011;16347;53.232;6.556;2023-10-08T15:23:08;6.47;;;2.05;;
29358;SDS011;16347;53.232;6.556;2023-10-08T15:25:40;8.75;;;2.25;;